Time;durP1;ratioP1;P1;durP2;ratioP2;P2;SDS_P1;SDS_P2;PMS_P1;PMS_P2;Temp;Humidity;BMP_temperature;BMP_pressure;BME280_temperature;BME280_humidity;BME280_pressure;Samples;Min_cycle;Max_cycle;Signal;HPM_P1;HPM_P2
2024/03/14 00:01:41;;;;;;;8.47;3.30;;;12.20;99.90;;;;;;5028421;28;20597;-83
2024/03/14 00:04:08;;;;;;;9.87;3.77;;;12.20;99.90;;;;;;5029309;28;20459;-82
2024/03/14 00:06:35;;;;;;;10.67;3.87;;;12.20;99.90;;;;;;5030187;28;20471;-82
2024/03/14 00:09:04;;;;;;;10.00;4.50;;;12.20;99.90;;;;;;5029794;28;20456;-82
2024/03/14 00:11:32;;;;;;;10.67;3.60;;;12.20;99.90;;;;;;5031765;28;20459;-82
2024/03/14 00:13:59;;;;;;;10.00;4.50;;;12.20;99.90;;;;;;5031482;28;20449;-82
2024/03/14 00:16:26;;;;;;;9.60;4.40;;;12.20;99.90;;;;;;5029387;28;20581;-83
2024/03/14 00:18:53;;;;;;;9.57;3.33;;;12.20;99.90;;;;;;5027059;28;20458;-81
2024/03/14 00:21:21;;;;;;;11.13;3.63;;;12.20;99.90;;;;;;5041614;28;20522;-84
2024/03/14 00:23:48;;;;;;;9.83;3.77;;;12.30;99.90;;;;;;5042627;28;20440;-83
2024/03/14 00:26:15;;;;;;;8.93;3.50;;;12.30;99.90;;;;;;5041920;28;20474;-83
2024/03/14 00:28:42;;;;;;;8.93;3.83;;;12.20;99.90;;;;;;5042341;28;20444;-84
2024/03/14 00:31:10;;;;;;;9.03;3.20;;;12.20;99.90;;;;;;5042551;28;20470;-84
2024/03/14 00:33:37;;;;;;;8.00;3.50;;;12.30;99.90;;;;;;5042463;28;20478;-85
2024/03/14 00:36:04;;;;;;;11.07;4.00;;;12.20;99.90;;;;;;5041294;28;20480;-80
2024/03/14 00:38:31;;;;;;;9.37;3.57;;;12.20;99.90;;;;;;5042109;28;20482;-85
2024/03/14 00:40:59;;;;;;;8.20;3.60;;;12.20;99.90;;;;;;5041842;28;20486;-85
2024/03/14 00:43:26;;;;;;;9.50;3.83;;;12.20;99.90;;;;;;5032945;28;20454;-81
2024/03/14 00:45:53;;;;;;;8.90;4.23;;;12.20;99.90;;;;;;5028294;28;20535;-81
2024/03/14 00:48:21;;;;;;;8.90;4.17;;;12.20;99.90;;;;;;5027894;28;20454;-83
2024/03/14 00:50:49;;;;;;;8.30;3.70;;;12.20;99.90;;;;;;5028113;28;20502;-81
2024/03/14 00:53:16;;;;;;;9.03;4.50;;;12.20;99.90;;;;;;5029255;28;20471;-81
2024/03/14 00:55:43;;;;;;;10.37;4.83;;;12.10;99.90;;;;;;5027449;28;20504;-82
2024/03/14 00:58:11;;;;;;;8.67;4.00;;;12.20;99.90;;;;;;5028711;28;20493;-82
2024/03/14 01:00:38;;;;;;;11.13;4.03;;;12.20;99.90;;;;;;5028948;28;20460;-81
2024/03/14 01:03:07;;;;;;;13.73;6.93;;;12.20;99.90;;;;;;5027753;28;20548;-82
2024/03/14 01:05:34;;;;;;;9.60;4.43;;;12.20;99.90;;;;;;5027279;28;20470;-81
2024/03/14 01:08:01;;;;;;;9.67;4.13;;;12.30;99.90;;;;;;5018773;28;20543;-82
2024/03/14 01:10:28;;;;;;;8.30;3.70;;;12.20;99.90;;;;;;5017135;28;20576;-81
2024/03/14 01:12:56;;;;;;;12.70;4.70;;;12.10;99.90;;;;;;5017234;28;20482;-82
2024/03/14 01:15:23;;;;;;;11.40;5.50;;;12.10;99.90;;;;;;5017679;28;21078;-81
2024/03/14 01:17:50;;;;;;;12.03;4.37;;;12.20;99.90;;;;;;5017209;28;20573;-81
2024/03/14 01:20:18;;;;;;;8.50;4.47;;;12.10;99.90;;;;;;5017373;28;20446;-82
2024/03/14 01:22:45;;;;;;;14.90;5.23;;;12.10;99.90;;;;;;5016590;28;20492;-82
2024/03/14 01:25:12;;;;;;;11.70;4.77;;;12.20;99.90;;;;;;5017160;28;20592;-83
2024/03/14 01:27:39;;;;;;;10.37;4.87;;;12.20;99.90;;;;;;5016600;28;20540;-81
2024/03/14 01:30:12;;;;;;;8.40;4.00;;;12.20;99.90;;;;;;5016589;28;20486;-83
2024/03/14 01:32:39;;;;;;;11.40;4.20;;;12.10;99.90;;;;;;5018248;28;21066;-81
2024/03/14 01:35:06;;;;;;;8.63;4.20;;;12.10;99.90;;;;;;5017261;28;20514;-83
2024/03/14 01:37:33;;;;;;;10.20;4.40;;;12.10;99.90;;;;;;5016631;28;20502;-81
2024/03/14 01:40:01;;;;;;;10.27;4.50;;;12.10;99.90;;;;;;5017519;28;20720;-81
2024/03/14 01:42:28;;;;;;;14.70;5.73;;;12.10;99.90;;;;;;5016855;28;20497;-81
2024/03/14 01:44:56;;;;;;;9.63;4.20;;;12.10;99.90;;;;;;5016859;28;20454;-81
2024/03/14 01:47:23;;;;;;;10.00;4.33;;;12.00;99.90;;;;;;5017586;28;20953;-80
2024/03/14 01:49:53;;;;;;;10.50;4.53;;;12.00;99.90;;;;;;5017033;28;20545;-82
2024/03/14 01:52:20;;;;;;;11.00;5.17;;;12.00;99.90;;;;;;5016996;28;20459;-80
2024/03/14 01:54:48;;;;;;;9.93;4.33;;;12.00;99.90;;;;;;5017096;28;20464;-81
2024/03/14 01:57:15;;;;;;;7.93;3.93;;;12.00;99.90;;;;;;5008791;28;20505;-81
2024/03/14 01:59:42;;;;;;;9.80;5.03;;;12.10;99.90;;;;;;5016264;28;20454;-81
2024/03/14 02:02:12;;;;;;;9.70;4.70;;;12.00;99.90;;;;;;5016467;28;20560;-82
2024/03/14 02:04:41;;;;;;;9.30;4.77;;;12.00;99.90;;;;;;5016113;28;20461;-81
2024/03/14 02:07:08;;;;;;;9.67;4.63;;;11.90;99.90;;;;;;5021034;28;20541;-81
2024/03/14 02:09:36;;;;;;;10.80;4.70;;;11.80;99.90;;;;;;5017775;28;20456;-83
2024/03/14 02:12:04;;;;;;;10.20;5.30;;;11.80;99.90;;;;;;5016443;28;20459;-81
2024/03/14 02:14:31;;;;;;;8.93;4.63;;;11.80;99.90;;;;;;5016488;28;20481;-81
2024/03/14 02:16:58;;;;;;;11.00;4.83;;;11.70;99.90;;;;;;5016045;28;20497;-82
2024/03/14 02:19:28;;;;;;;10.00;5.30;;;11.60;99.90;;;;;;5013069;28;20569;-81
2024/03/14 02:21:58;;;;;;;10.93;4.90;;;11.60;99.90;;;;;;5017168;28;20538;-82
2024/03/14 02:24:25;;;;;;;9.67;4.53;;;11.60;99.90;;;;;;5016686;28;20458;-81
2024/03/14 02:26:52;;;;;;;9.20;5.00;;;11.50;99.90;;;;;;5016670;28;20495;-81
2024/03/14 02:29:19;;;;;;;10.37;5.27;;;11.50;99.90;;;;;;5022848;28;20521;-81
2024/03/14 02:31:46;;;;;;;13.60;5.50;;;11.40;99.90;;;;;;5027149;28;20493;-82
2024/03/14 02:34:14;;;;;;;8.20;4.87;;;11.40;99.90;;;;;;5024537;28;20503;-81
2024/03/14 02:36:41;;;;;;;12.43;5.00;;;11.40;99.90;;;;;;5024575;28;20483;-82
2024/03/14 02:39:10;;;;;;;10.50;4.90;;;11.40;99.90;;;;;;5024373;28;20522;-82
2024/03/14 02:41:37;;;;;;;8.23;4.53;;;11.30;99.90;;;;;;5025448;28;20463;-83
2024/03/14 02:44:14;;;;;;;9.60;4.67;;;11.20;99.90;;;;;;5025982;28;20488;-81
2024/03/14 02:46:42;;;;;;;9.60;4.83;;;11.20;99.90;;;;;;5020324;28;20481;-81
2024/03/14 02:49:10;;;;;;;15.30;4.73;;;11.10;99.90;;;;;;5020046;28;20887;-82
2024/03/14 02:51:37;;;;;;;9.13;4.77;;;11.10;99.90;;;;;;5020162;28;20994;-81
2024/03/14 02:54:05;;;;;;;9.07;4.53;;;11.10;99.90;;;;;;5019440;28;20453;-81
2024/03/14 02:56:33;;;;;;;10.57;5.17;;;11.00;99.90;;;;;;5020129;28;20480;-81
2024/03/14 02:59:00;;;;;;;9.80;4.10;;;11.00;99.90;;;;;;5020554;28;20493;-80
2024/03/14 03:01:27;;;;;;;12.53;4.40;;;10.90;99.90;;;;;;5020659;28;20516;-81
2024/03/14 03:03:54;;;;;;;10.20;4.77;;;10.80;99.90;;;;;;5019478;28;20456;-82
2024/03/14 03:06:21;;;;;;;11.50;5.40;;;10.70;99.90;;;;;;5034981;28;20476;-81
2024/03/14 03:08:48;;;;;;;10.07;4.90;;;10.70;99.90;;;;;;5019048;28;20458;-81
2024/03/14 03:11:15;;;;;;;10.33;3.97;;;10.70;99.90;;;;;;5027441;28;20458;-82
2024/03/14 03:13:42;;;;;;;10.73;4.67;;;10.60;99.90;;;;;;5019405;28;20465;-82
2024/03/14 03:16:09;;;;;;;15.30;4.77;;;10.50;99.90;;;;;;5019399;28;20481;-81
2024/03/14 03:18:38;;;;;;;11.80;5.20;;;10.50;99.90;;;;;;5031333;28;20576;-82
2024/03/14 03:21:05;;;;;;;11.23;4.17;;;10.40;99.90;;;;;;5030494;28;20441;-82
2024/03/14 03:23:33;;;;;;;9.73;4.20;;;10.30;99.90;;;;;;5038008;28;20607;-83
2024/03/14 03:25:59;;;;;;;9.97;3.90;;;10.20;99.90;;;;;;5029539;28;20934;-82
2024/03/14 03:28:26;;;;;;;7.70;3.80;;;10.20;99.90;;;;;;5018910;28;20456;-82
2024/03/14 03:30:53;;;;;;;9.40;4.37;;;10.10;99.90;;;;;;5019170;28;20466;-82
2024/03/14 03:33:20;;;;;;;9.60;4.23;;;10.10;99.90;;;;;;5015571;28;20843;-82
2024/03/14 03:35:46;;;;;;;10.00;4.23;;;10.00;99.90;;;;;;5018448;28;20483;-82
2024/03/14 03:38:14;;;;;;;9.73;4.70;;;10.00;99.90;;;;;;5018007;28;21012;-82
2024/03/14 03:40:40;;;;;;;8.93;4.17;;;10.00;99.90;;;;;;5015352;28;20463;-82
2024/03/14 03:43:07;;;;;;;7.63;3.73;;;10.00;99.90;;;;;;5031455;28;20484;-82
2024/03/14 03:45:34;;;;;;;13.77;4.70;;;10.00;99.90;;;;;;5019430;28;20479;-81
2024/03/14 03:48:01;;;;;;;9.10;3.70;;;9.90;99.90;;;;;;5019969;28;20450;-81
2024/03/14 03:50:27;;;;;;;11.20;4.70;;;9.90;99.90;;;;;;5018933;28;20466;-82
2024/03/14 03:52:55;;;;;;;8.57;4.40;;;9.90;99.90;;;;;;5018731;28;20487;-81
2024/03/14 03:55:21;;;;;;;10.50;4.43;;;9.90;99.90;;;;;;5017572;28;20924;-81
2024/03/14 03:57:48;;;;;;;8.73;4.00;;;9.90;99.90;;;;;;5018676;28;20486;-82
2024/03/14 04:02:59;;;;;;;10.27;4.90;;;9.80;99.90;;;;;;5021094;28;21015;-82
2024/03/14 04:05:25;;;;;;;8.93;4.70;;;9.80;99.90;;;;;;5014641;28;20548;-82
2024/03/14 04:07:53;;;;;;;9.30;4.27;;;9.80;99.90;;;;;;5020484;28;20484;-82
2024/03/14 04:10:23;;;;;;;9.63;4.60;;;9.80;99.90;;;;;;5018322;28;20464;-81
2024/03/14 04:12:50;;;;;;;9.30;3.60;;;9.80;99.90;;;;;;5020169;28;20462;-81
2024/03/14 04:15:16;;;;;;;7.90;3.50;;;9.90;99.90;;;;;;5019123;28;21028;-81
2024/03/14 04:17:43;;;;;;;10.47;5.03;;;9.80;99.90;;;;;;5018250;28;20485;-81
2024/03/14 04:20:12;;;;;;;10.53;4.73;;;9.70;99.90;;;;;;5019437;28;20466;-81
2024/03/14 04:22:40;;;;;;;9.37;4.37;;;9.70;99.90;;;;;;5018908;28;20522;-82
2024/03/14 04:25:10;;;;;;;9.93;4.10;;;9.70;99.90;;;;;;5032311;28;20480;-83
2024/03/14 04:27:40;;;;;;;11.30;4.50;;;9.70;99.90;;;;;;5047706;28;20448;-82
2024/03/14 04:30:07;;;;;;;8.83;3.90;;;9.70;99.90;;;;;;5036955;28;20437;-82
2024/03/14 04:32:34;;;;;;;8.33;4.23;;;9.60;99.90;;;;;;5032884;28;20445;-82
2024/03/14 04:35:03;;;;;;;7.67;4.87;;;9.60;99.90;;;;;;5034732;28;20473;-82
2024/03/14 04:37:31;;;;;;;12.93;4.57;;;9.70;99.90;;;;;;5031726;28;20906;-82
2024/03/14 04:39:58;;;;;;;9.10;4.63;;;9.70;99.90;;;;;;5017966;28;20544;-81
2024/03/14 04:42:25;;;;;;;9.30;4.70;;;9.70;99.90;;;;;;5018250;28;20447;-82
2024/03/14 04:44:54;;;;;;;9.17;4.70;;;9.60;99.90;;;;;;5017889;28;20457;-81
2024/03/14 04:47:21;;;;;;;8.00;4.00;;;9.60;99.90;;;;;;5031179;28;20447;-83
2024/03/14 04:49:48;;;;;;;8.93;4.17;;;9.60;99.90;;;;;;5036213;28;20475;-82
2024/03/14 04:52:16;;;;;;;8.47;3.87;;;9.60;99.90;;;;;;5036407;28;20465;-83
2024/03/14 04:54:46;;;;;;;9.47;4.80;;;9.60;99.90;;;;;;5031146;28;20965;-83
2024/03/14 04:57:13;;;;;;;8.07;4.37;;;9.50;99.90;;;;;;5036722;28;20483;-83
2024/03/14 04:59:41;;;;;;;9.20;4.87;;;9.50;99.90;;;;;;5032751;28;20511;-84
2024/03/14 05:02:09;;;;;;;9.40;4.50;;;9.50;99.90;;;;;;5036126;28;20533;-82
2024/03/14 05:04:36;;;;;;;8.50;4.73;;;9.50;99.90;;;;;;5026165;28;20540;-82
2024/03/14 05:07:03;;;;;;;12.50;4.90;;;9.50;99.90;;;;;;5026905;28;20536;-83
2024/03/14 05:09:30;;;;;;;12.17;4.77;;;9.50;99.90;;;;;;5027478;28;20445;-82
2024/03/14 05:11:57;;;;;;;11.20;4.40;;;9.50;99.90;;;;;;5028969;28;20462;-83
2024/03/14 05:14:24;;;;;;;9.23;4.13;;;9.50;99.90;;;;;;5024856;28;20467;-81
2024/03/14 05:16:51;;;;;;;7.60;3.60;;;9.50;99.90;;;;;;5016966;28;20838;-82
2024/03/14 05:19:20;;;;;;;7.77;3.40;;;9.50;99.90;;;;;;5018476;28;20495;-81
2024/03/14 05:21:47;;;;;;;8.00;4.83;;;9.40;99.90;;;;;;5016948;28;20459;-80
2024/03/14 05:24:16;;;;;;;9.90;5.03;;;9.40;99.90;;;;;;5009629;28;20463;-81
2024/03/14 05:26:43;;;;;;;9.60;4.23;;;9.40;99.90;;;;;;5016749;28;20480;-80
2024/03/14 05:29:10;;;;;;;9.70;5.03;;;9.40;99.90;;;;;;5016406;28;20456;-81
2024/03/14 05:31:37;;;;;;;8.70;3.80;;;9.40;99.90;;;;;;5016508;28;20449;-81
2024/03/14 05:34:04;;;;;;;8.63;4.73;;;9.40;99.90;;;;;;5017867;28;20459;-81
2024/03/14 05:36:31;;;;;;;8.43;4.23;;;9.30;99.90;;;;;;5021215;28;20548;-80
2024/03/14 05:38:59;;;;;;;9.03;3.83;;;9.20;99.90;;;;;;5009107;28;20516;-81
2024/03/14 05:41:26;;;;;;;7.97;4.30;;;9.20;99.90;;;;;;5007460;28;20449;-81
2024/03/14 05:43:52;;;;;;;8.87;4.37;;;9.20;99.90;;;;;;5011494;28;20448;-81
2024/03/14 05:46:19;;;;;;;8.67;4.87;;;9.10;99.90;;;;;;5009412;28;20452;-79
2024/03/14 05:48:46;;;;;;;9.10;4.27;;;9.10;99.90;;;;;;5010085;28;20513;-81
2024/03/14 05:51:13;;;;;;;10.00;4.40;;;9.10;99.90;;;;;;5028683;28;20531;-80
2024/03/14 05:53:40;;;;;;;9.83;4.30;;;9.10;99.90;;;;;;5010842;28;20564;-80
2024/03/14 05:56:09;;;;;;;6.90;3.57;;;9.10;99.90;;;;;;5010501;28;20475;-80
2024/03/14 05:58:37;;;;;;;8.87;4.83;;;9.00;99.90;;;;;;5011240;28;20605;-79
2024/03/14 06:01:06;;;;;;;8.40;3.87;;;9.00;99.90;;;;;;5010138;28;20459;-79
2024/03/14 06:03:33;;;;;;;12.87;4.87;;;8.90;99.90;;;;;;5008343;28;20460;-80
2024/03/14 06:06:00;;;;;;;9.03;5.33;;;8.90;99.90;;;;;;5013474;28;20499;-79
2024/03/14 06:08:28;;;;;;;9.43;4.70;;;8.90;99.90;;;;;;5010075;28;20444;-81
2024/03/14 06:10:54;;;;;;;13.30;5.60;;;8.80;99.90;;;;;;5004763;28;20787;-79
2024/03/14 06:13:22;;;;;;;9.10;5.07;;;8.80;99.90;;;;;;5012654;28;20448;-78
2024/03/14 06:15:50;;;;;;;11.73;6.10;;;8.80;99.90;;;;;;5016762;28;20475;-83
2024/03/14 06:18:19;;;;;;;10.00;5.40;;;8.80;99.90;;;;;;5016528;28;20491;-79
2024/03/14 06:20:46;;;;;;;8.63;4.63;;;8.80;99.90;;;;;;5016624;28;20460;-80
2024/03/14 06:23:13;;;;;;;11.03;5.73;;;8.80;99.90;;;;;;5018809;28;20531;-79
2024/03/14 06:25:40;;;;;;;10.00;5.33;;;8.80;99.90;;;;;;5017161;28;20487;-80
2024/03/14 06:28:08;;;;;;;8.70;4.13;;;8.80;99.90;;;;;;5022694;28;20886;-80
2024/03/14 06:30:35;;;;;;;9.70;5.60;;;8.80;99.90;;;;;;5018906;28;20947;-79
2024/03/14 06:36:04;;;;;;;9.83;4.93;;;;;;;;;;5018854;28;20516;-81
2024/03/14 06:38:31;;;;;;;12.40;6.97;;;8.80;99.90;;;;;;5036547;28;20480;-81
2024/03/14 06:43:58;;;;;;;10.47;4.70;;;8.80;99.90;;;;;;5036434;28;20456;-81
2024/03/14 06:46:26;;;;;;;11.70;5.93;;;8.90;99.90;;;;;;5015476;28;20479;-79
2024/03/14 06:51:38;;;;;;;10.97;6.33;;;8.80;99.90;;;;;;5006428;28;20990;-79
2024/03/14 06:54:05;;;;;;;9.33;5.50;;;8.80;99.90;;;;;;5014937;28;20457;-80
2024/03/14 06:56:32;;;;;;;11.67;5.47;;;8.90;99.90;;;;;;5015152;28;20555;-79
2024/03/14 06:58:59;;;;;;;10.67;6.40;;;8.90;99.90;;;;;;5014488;28;21055;-80
2024/03/14 07:01:26;;;;;;;11.13;5.83;;;8.90;99.90;;;;;;5014657;28;20456;-79
2024/03/14 07:03:54;;;;;;;14.83;7.57;;;9.00;99.90;;;;;;5013997;28;20457;-80
2024/03/14 07:06:23;;;;;;;12.47;6.77;;;9.10;99.90;;;;;;5014908;28;20576;-79
2024/03/14 07:08:56;;;;;;;13.60;7.00;;;9.20;99.90;;;;;;5014651;28;20525;-79
2024/03/14 07:11:25;;;;;;;11.93;5.10;;;9.30;99.90;;;;;;5015681;28;20464;-79
2024/03/14 07:13:54;;;;;;;11.10;7.07;;;9.50;99.90;;;;;;5015746;28;20511;-79
2024/03/14 07:16:21;;;;;;;10.17;6.37;;;9.60;99.90;;;;;;5014496;28;20483;-81
2024/03/14 07:18:49;;;;;;;13.33;7.83;;;9.70;99.90;;;;;;5014527;28;20931;-78
2024/03/14 07:21:33;;;;;;;11.70;6.30;;;9.50;99.90;;;;;;5013767;28;20531;-83
2024/03/14 07:24:00;;;;;;;9.67;5.83;;;9.80;99.90;;;;;;5016204;28;20465;-79
2024/03/14 07:26:32;;;;;;;11.57;6.03;;;9.70;99.90;;;;;;5014656;28;20833;-80
2024/03/14 07:28:59;;;;;;;8.70;4.93;;;10.10;99.90;;;;;;5016194;28;20542;-79
2024/03/14 07:31:28;;;;;;;9.87;5.60;;;10.20;99.90;;;;;;5021313;28;20458;-81
2024/03/14 07:33:55;;;;;;;11.10;5.30;;;10.30;99.90;;;;;;5021764;28;20543;-80
2024/03/14 07:36:24;;;;;;;8.50;5.23;;;10.40;99.90;;;;;;5022820;28;20985;-82
2024/03/14 07:38:51;;;;;;;10.30;5.67;;;10.40;99.90;;;;;;5027045;28;20485;-82
2024/03/14 07:41:21;;;;;;;9.97;4.83;;;10.60;99.90;;;;;;5004975;28;20822;-79
2024/03/14 07:43:53;;;;;;;11.17;4.33;;;10.80;99.90;;;;;;5024713;28;20458;-81
2024/03/14 07:46:20;;;;;;;9.50;4.80;;;11.10;99.90;;;;;;5027303;28;20551;-80
2024/03/14 07:48:49;;;;;;;11.77;5.00;;;11.30;99.90;;;;;;5021799;28;20451;-80
2024/03/14 07:51:16;;;;;;;9.00;4.60;;;11.60;99.90;;;;;;5021381;28;20479;-80
2024/03/14 07:53:46;;;;;;;8.47;4.40;;;11.80;99.90;;;;;;5024335;28;20509;-79
2024/03/14 07:56:13;;;;;;;11.33;4.10;;;12.10;99.90;;;;;;5024773;28;20474;-80
2024/03/14 07:58:42;;;;;;;13.73;4.03;;;12.30;99.90;;;;;;5020127;28;20761;-81
2024/03/14 08:01:10;;;;;;;9.80;4.33;;;12.50;99.90;;;;;;5023294;28;20537;-80
2024/03/14 08:03:38;;;;;;;9.30;4.50;;;12.70;99.90;;;;;;5025551;28;20497;-81
2024/03/14 08:06:07;;;;;;;8.67;3.73;;;12.80;99.90;;;;;;5029821;28;20841;-80
2024/03/14 08:08:34;;;;;;;8.33;4.43;;;12.90;99.90;;;;;;5023717;28;20454;-80
2024/03/14 08:11:03;;;;;;;9.17;3.90;;;12.90;99.90;;;;;;5024149;28;20555;-81
2024/03/14 08:13:31;;;;;;;8.07;3.90;;;13.00;99.90;;;;;;5023272;28;20450;-81
2024/03/14 08:16:08;;;;;;;9.03;3.70;;;13.20;99.90;;;;;;5022649;28;20464;-80
2024/03/14 08:18:37;;;;;;;10.73;4.10;;;13.40;99.90;;;;;;5019007;28;20558;-80
2024/03/14 08:21:06;;;;;;;7.70;3.30;;;13.70;99.90;;;;;;5018273;28;20512;-80
2024/03/14 08:23:36;;;;;;;8.73;3.90;;;13.80;99.90;;;;;;5017709;28;20463;-81
2024/03/14 08:26:03;;;;;;;10.33;4.23;;;13.80;99.90;;;;;;5018615;28;20572;-80
2024/03/14 08:28:29;;;;;;;9.20;4.30;;;13.90;99.90;;;;;;5018086;28;20464;-80
2024/03/14 08:30:58;;;;;;;8.10;3.37;;;13.80;99.90;;;;;;5018638;28;20486;-79
2024/03/14 08:33:25;;;;;;;8.30;3.47;;;14.10;99.90;;;;;;5019600;28;20510;-81
2024/03/14 08:35:53;;;;;;;10.90;3.33;;;14.40;99.90;;;;;;5017916;28;20534;-81
2024/03/14 08:38:19;;;;;;;8.37;3.53;;;14.50;99.90;;;;;;5018526;28;20483;-78
2024/03/14 08:40:47;;;;;;;8.10;3.10;;;14.50;99.90;;;;;;5014193;28;21047;-81
2024/03/14 08:43:16;;;;;;;8.67;2.77;;;14.70;99.90;;;;;;5019243;28;20460;-80
2024/03/14 08:45:43;;;;;;;7.77;2.80;;;15.00;99.90;;;;;;5018691;28;20472;-79
2024/03/14 08:48:11;;;;;;;8.07;2.70;;;15.30;99.90;;;;;;5017955;28;20456;-80
2024/03/14 08:50:40;;;;;;;8.77;2.80;;;15.50;99.90;;;;;;5018121;28;20448;-81
2024/03/14 08:53:09;;;;;;;8.57;2.60;;;15.70;99.90;;;;;;5016921;28;20460;-79
2024/03/14 08:55:39;;;;;;;9.07;3.03;;;15.70;99.90;;;;;;5018880;28;20473;-81
2024/03/14 08:58:08;;;;;;;9.63;2.87;;;15.60;99.90;;;;;;5018902;28;20468;-82
2024/03/14 09:00:35;;;;;;;8.20;3.00;;;15.80;99.90;;;;;;5018904;28;20496;-80
2024/03/14 09:03:05;;;;;;;8.13;2.63;;;15.80;99.90;;;;;;5022156;28;20508;-80
2024/03/14 09:05:32;;;;;;;10.50;2.97;;;16.10;99.90;;;;;;5019172;28;20918;-79
2024/03/14 09:07:59;;;;;;;12.30;3.30;;;16.30;99.90;;;;;;5018698;28;20463;-80
2024/03/14 09:10:26;;;;;;;8.43;3.00;;;16.10;99.90;;;;;;5018610;28;20830;-80
2024/03/14 09:12:54;;;;;;;15.23;3.73;;;16.20;99.90;;;;;;5018361;28;20531;-81
2024/03/14 09:15:22;;;;;;;9.87;3.13;;;16.20;99.90;;;;;;5018566;28;20512;-81
2024/03/14 09:17:50;;;;;;;9.30;2.47;;;16.70;99.90;;;;;;5018701;28;20626;-80
2024/03/14 09:20:19;;;;;;;9.60;2.60;;;17.20;99.90;;;;;;5018472;28;20492;-80
2024/03/14 09:22:53;;;;;;;8.80;2.30;;;17.90;99.90;;;;;;5018824;28;20807;-80
2024/03/14 09:25:21;;;;;;;8.77;2.63;;;18.00;99.90;;;;;;5019648;28;20484;-80
2024/03/14 09:27:48;;;;;;;8.70;2.20;;;17.80;99.90;;;;;;5019073;28;20472;-80
2024/03/14 09:30:17;;;;;;;10.83;2.63;;;17.90;99.90;;;;;;5019468;28;21052;-82
2024/03/14 09:32:44;;;;;;;10.97;2.67;;;18.30;99.90;;;;;;5019795;28;20516;-80
2024/03/14 09:35:12;;;;;;;12.00;2.77;;;18.50;99.90;;;;;;5018854;28;20544;-80
2024/03/14 09:37:39;;;;;;;13.90;3.00;;;18.50;99.90;;;;;;5018631;28;20904;-80
2024/03/14 09:40:06;;;;;;;8.93;2.40;;;18.80;99.90;;;;;;5018059;28;20493;-80
2024/03/14 09:42:33;;;;;;;8.37;1.90;;;20.30;99.90;;;;;;5014205;28;20500;-79
2024/03/14 09:45:01;;;;;;;9.33;2.20;;;20.80;99.90;;;;;;5017282;28;20459;-80
2024/03/14 09:47:29;;;;;;;9.00;2.80;;;20.70;99.90;;;;;;5017213;28;20461;-80
2024/03/14 09:49:56;;;;;;;10.07;2.50;;;20.40;99.90;;;;;;5016851;28;20452;-81
2024/03/14 09:52:23;;;;;;;8.67;2.10;;;20.40;99.90;;;;;;5017295;28;20961;-80
2024/03/14 09:54:50;;;;;;;10.33;2.60;;;22.20;99.90;;;;;;5017204;28;20456;-81
2024/03/14 09:57:17;;;;;;;8.87;2.50;;;22.10;99.90;;;;;;5018034;28;20512;-81
2024/03/14 09:59:44;;;;;;;18.23;3.10;;;22.50;99.90;;;;;;5018813;28;21024;-80
2024/03/14 10:02:14;;;;;;;9.57;2.70;;;22.50;98.10;;;;;;5018957;28;20441;-81
2024/03/14 10:04:43;;;;;;;8.67;2.30;;;21.80;98.10;;;;;;5019769;28;20521;-81
2024/03/14 10:07:11;;;;;;;9.50;2.50;;;21.40;98.50;;;;;;5020868;28;20469;-82
2024/03/14 10:09:38;;;;;;;9.53;3.23;;;20.80;97.70;;;;;;5018647;28;20453;-82
2024/03/14 10:12:10;;;;;;;9.70;3.10;;;20.30;97.70;;;;;;5021228;28;20531;-82
2024/03/14 10:14:37;;;;;;;12.90;2.83;;;20.10;98.80;;;;;;5021738;28;20448;-82
2024/03/14 10:17:04;;;;;;;9.20;3.00;;;20.50;99.40;;;;;;5022682;28;20484;-82
2024/03/14 10:19:35;;;;;;;8.07;2.30;;;21.70;99.40;;;;;;5024076;28;20488;-82
2024/03/14 10:22:03;;;;;;;9.87;2.43;;;23.40;97.70;;;;;;5023501;28;20457;-82
2024/03/14 10:24:31;;;;;;;8.87;2.60;;;24.00;95.80;;;;;;5020363;28;20460;-81
2024/03/14 10:26:58;;;;;;;10.10;2.77;;;24.80;94.00;;;;;;5020090;28;20929;-81
2024/03/14 10:29:32;;;;;;;9.57;2.13;;;24.90;91.90;;;;;;5017688;28;20453;-80
2024/03/14 10:31:59;;;;;;;9.47;2.33;;;25.20;92.70;;;;;;5019006;28;20491;-81
2024/03/14 10:34:26;;;;;;;11.80;2.73;;;25.90;91.20;;;;;;5019030;28;20476;-80
2024/03/14 10:36:54;;;;;;;8.30;2.40;;;26.90;90.10;;;;;;5018915;28;20468;-80
2024/03/14 10:39:21;;;;;;;11.87;3.43;;;26.70;85.20;;;;;;5017950;28;20500;-80
2024/03/14 10:41:48;;;;;;;8.63;2.43;;;26.30;84.10;;;;;;5018749;28;20843;-81
2024/03/14 10:44:15;;;;;;;9.63;2.60;;;26.90;84.90;;;;;;5020205;28;20452;-81
2024/03/14 10:46:43;;;;;;;9.10;2.30;;;26.60;80.80;;;;;;5017633;28;20571;-82
2024/03/14 10:49:10;;;;;;;13.23;2.33;;;25.50;80.30;;;;;;5017927;28;20555;-80
2024/03/14 10:51:37;;;;;;;10.00;2.57;;;24.70;81.70;;;;;;5017544;28;20552;-80
2024/03/14 10:54:04;;;;;;;10.03;2.87;;;22.80;82.40;;;;;;5017218;28;20499;-80
2024/03/14 10:56:32;;;;;;;9.33;2.77;;;22.60;87.00;;;;;;5016856;28;20486;-80
2024/03/14 10:58:59;;;;;;;8.03;2.03;;;23.50;86.20;;;;;;5017473;28;20488;-81
2024/03/14 11:01:26;;;;;;;11.97;2.53;;;25.60;83.30;;;;;;5017089;28;20499;-80
2024/03/14 11:03:54;;;;;;;9.50;2.23;;;25.90;83.30;;;;;;5022407;28;20463;-83
2024/03/14 11:06:21;;;;;;;8.40;2.10;;;26.60;80.40;;;;;;5023605;28;20567;-80
2024/03/14 11:08:48;;;;;;;9.83;2.40;;;26.90;78.20;;;;;;5021767;28;20438;-80
2024/03/14 11:11:16;;;;;;;9.07;2.10;;;26.40;77.40;;;;;;5028099;28;20452;-81
2024/03/14 11:13:48;;;;;;;9.87;1.97;;;25.10;77.10;;;;;;5023169;28;20456;-80
2024/03/14 11:16:15;;;;;;;10.10;3.10;;;23.90;78.40;;;;;;5024797;28;20504;-80
2024/03/14 11:18:42;;;;;;;8.00;1.70;;;23.80;79.80;;;;;;5022375;28;20487;-81
2024/03/14 11:21:10;;;;;;;10.67;2.23;;;24.10;80.70;;;;;;5022846;28;20491;-80
2024/03/14 11:23:37;;;;;;;8.63;2.17;;;24.00;83.10;;;;;;5024684;28;20460;-81
2024/03/14 11:26:05;;;;;;;8.67;2.50;;;25.60;82.20;;;;;;5024457;28;20548;-82
2024/03/14 11:28:32;;;;;;;8.70;2.07;;;26.60;81.40;;;;;;5019928;28;20828;-80
2024/03/14 11:31:06;;;;;;;18.20;6.90;;;27.00;77.40;;;;;;5023731;28;21063;-81
2024/03/14 11:33:33;;;;;;;15.20;2.70;;;26.90;83.00;;;;;;5009113;28;20457;-80
2024/03/14 11:36:00;;;;;;;9.97;2.03;;;26.90;79.20;;;;;;5022186;28;20540;-83
2024/03/14 11:38:29;;;;;;;8.60;2.23;;;27.60;81.80;;;;;;5033486;28;20457;-82
2024/03/14 11:40:58;;;;;;;11.37;1.97;;;28.30;76.70;;;;;;5023818;28;20499;-81
2024/03/14 11:43:25;;;;;;;8.60;1.70;;;29.10;78.40;;;;;;5020454;28;20457;-80
2024/03/14 11:46:01;;;;;;;9.63;1.93;;;29.80;76.90;;;;;;5023254;28;20773;-81
2024/03/14 11:48:28;;;;;;;7.80;1.70;;;30.40;72.10;;;;;;5024019;28;20456;-81
2024/03/14 11:50:56;;;;;;;8.63;1.90;;;29.60;71.20;;;;;;5024197;28;20543;-80
2024/03/14 11:53:22;;;;;;;10.00;1.90;;;29.40;71.70;;;;;;5025268;28;20838;-81
2024/03/14 11:55:49;;;;;;;8.10;1.80;;;28.10;73.10;;;;;;5024142;28;20572;-82
2024/03/14 11:58:16;;;;;;;8.50;1.97;;;27.80;74.60;;;;;;5025884;28;20485;-81
2024/03/14 12:00:44;;;;;;;8.97;2.00;;;27.20;73.60;;;;;;5025485;28;20583;-79
2024/03/14 12:03:11;;;;;;;8.33;1.97;;;28.80;73.20;;;;;;5024341;28;20453;-80
2024/03/14 12:05:44;;;;;;;8.53;1.70;;;31.20;71.30;;;;;;5023843;28;20480;-80
2024/03/14 12:08:12;;;;;;;7.80;1.77;;;32.00;69.10;;;;;;5025717;28;20449;-82
2024/03/14 12:10:39;;;;;;;8.20;2.20;;;32.90;67.30;;;;;;5022846;28;20450;-80
2024/03/14 12:13:14;;;;;;;8.93;1.90;;;33.80;66.20;;;;;;5024686;28;20450;-81
2024/03/14 12:15:41;;;;;;;7.83;1.70;;;35.10;65.30;;;;;;5023407;28;20660;-80
2024/03/14 12:18:13;;;;;;;9.53;2.03;;;34.80;60.70;;;;;;5024915;28;20453;-82
2024/03/14 12:20:47;;;;;;;8.63;2.17;;;35.20;60.30;;;;;;5035289;28;20530;-81
2024/03/14 12:23:14;;;;;;;8.27;2.10;;;35.60;58.80;;;;;;5028053;28;20445;-82
2024/03/14 12:25:42;;;;;;;11.37;1.60;;;36.50;55.80;;;;;;5025200;28;20505;-82
2024/03/14 12:28:14;;;;;;;10.10;1.60;;;36.40;55.60;;;;;;5026173;28;20463;-84
2024/03/14 12:30:42;;;;;;;8.03;1.77;;;35.70;54.40;;;;;;5028348;28;20453;-83
2024/03/14 12:33:11;;;;;;;8.20;1.90;;;35.30;54.50;;;;;;5026618;28;21960;-80
2024/03/14 12:35:40;;;;;;;10.00;1.90;;;33.80;54.60;;;;;;5027104;28;20498;-81
2024/03/14 12:38:07;;;;;;;9.23;1.73;;;33.90;54.40;;;;;;5028390;28;20441;-82
2024/03/14 12:40:34;;;;;;;7.30;1.43;;;35.50;54.70;;;;;;5028413;28;20494;-83
2024/03/14 12:43:01;;;;;;;8.83;2.17;;;35.60;52.70;;;;;;5028599;28;21044;-81
2024/03/14 12:45:29;;;;;;;8.13;1.70;;;33.50;53.30;;;;;;5025006;28;20508;-83
2024/03/14 12:47:56;;;;;;;8.73;1.60;;;34.00;53.10;;;;;;5026750;28;20460;-81
2024/03/14 12:50:24;;;;;;;7.83;1.53;;;34.70;54.20;;;;;;5027831;28;21000;-81
2024/03/14 12:53:03;;;;;;;8.43;1.60;;;34.20;55.10;;;;;;5027118;28;20506;-82
2024/03/14 12:55:31;;;;;;;9.00;1.60;;;34.60;53.50;;;;;;5032357;28;20484;-82
2024/03/14 12:57:58;;;;;;;7.77;1.43;;;34.60;54.00;;;;;;5026869;28;20456;-81
2024/03/14 13:00:26;;;;;;;9.50;2.17;;;34.20;52.80;;;;;;5026892;28;20520;-80